RYR43HC LICA-EPKK
Flight info
| Callsign | RYR43HC |
|---|---|
| Flight time | 2h 1m |
| Altitude | 38000 |
| Route | N0433F380 ARBUM DCT EVINO DCT XOLTA/N0431F370 DCT VEBAL DCT MOCON/N0353F230 M985 MEBAN |
| Aircraft | B738/M-SDE3FGIJ1LRWY/SB1 |
Departure
| Time | 2026-04-12 09:36 |
|---|---|
| Airport | Lamezia Terme Sant'Eufemia International Airport (LICA) |
Arrival
| Time | 2026-04-12 11:37 |
|---|---|
| Airport | Kraków John Paul II International Airport (EPKK) |
| Time | Latitude | Longitude | Altitude | Speed | Heading |
|---|---|---|---|---|---|
| 2026-04-12 09:06 | 38.90870 | 16.24532 | 58 ft | 0 kts | 56° |
| 2026-04-12 09:32 | 38.90871 | 16.24534 | 31 ft | 1 kts | 57° |
| 2026-04-12 09:32 | 38.90869 | 16.24551 | 31 ft | 2 kts | 124° |
| 2026-04-12 09:32 | 38.90847 | 16.24545 | 31 ft | 6 kts | 198° |
| 2026-04-12 09:32 | 38.90807 | 16.24493 | 31 ft | 13 kts | 271° |
| 2026-04-12 09:33 | 38.90823 | 16.24342 | 31 ft | 20 kts | 279° |
| 2026-04-12 09:33 | 38.90812 | 16.24215 | 31 ft | 14 kts | 236° |
| 2026-04-12 09:33 | 38.90778 | 16.24108 | 31 ft | 14 kts | 278° |
| 2026-04-12 09:33 | 38.90795 | 16.23960 | 31 ft | 21 kts | 278° |
| 2026-04-12 09:34 | 38.90821 | 16.23733 | 31 ft | 30 kts | 278° |
| 2026-04-12 09:34 | 38.90854 | 16.23462 | 31 ft | 31 kts | 278° |
| 2026-04-12 09:34 | 38.90879 | 16.23204 | 31 ft | 26 kts | 269° |
| 2026-04-12 09:34 | 38.90824 | 16.23002 | 31 ft | 22 kts | 235° |
| 2026-04-12 09:35 | 38.90744 | 16.22912 | 32 ft | 12 kts | 183° |
| 2026-04-12 09:35 | 38.90682 | 16.23000 | 33 ft | 23 kts | 97° |
| 2026-04-12 09:35 | 38.90624 | 16.23516 | 34 ft | 94 kts | 97° |
| 2026-04-12 09:35 | 38.90495 | 16.24612 | 65 ft | 149 kts | 96° |
| 2026-04-12 09:36 | 38.90323 | 16.25910 | 815 ft | 141 kts | 95° |
| 2026-04-12 09:36 | 38.90160 | 16.27200 | 1473 ft | 152 kts | 99° |
| 2026-04-12 09:36 | 38.89982 | 16.28543 | 2376 ft | 152 kts | 103° |
| 2026-04-12 09:36 | 38.89780 | 16.29904 | 3094 ft | 160 kts | 104° |
| 2026-04-12 09:37 | 38.89524 | 16.31366 | 3669 ft | 183 kts | 106° |
| 2026-04-12 09:37 | 38.89270 | 16.33088 | 3909 ft | 212 kts | 103° |
| 2026-04-12 09:37 | 38.89019 | 16.35048 | 4276 ft | 227 kts | 102° |
| 2026-04-12 09:37 | 38.88755 | 16.37098 | 5005 ft | 234 kts | 103° |
| 2026-04-12 09:38 | 38.88480 | 16.39153 | 5943 ft | 231 kts | 104° |
| 2026-04-12 09:38 | 38.88215 | 16.41138 | 7129 ft | 218 kts | 102° |
| 2026-04-12 09:38 | 38.88254 | 16.43082 | 7972 ft | 230 kts | 79° |
| 2026-04-12 09:38 | 38.89026 | 16.45025 | 8228 ft | 264 kts | 51° |
| 2026-04-12 09:39 | 38.90639 | 16.46342 | 8628 ft | 289 kts | 16° |
| 2026-04-12 09:39 | 38.92660 | 16.46323 | 9319 ft | 298 kts | 342° |
| 2026-04-12 09:39 | 38.94490 | 16.45094 | 10150 ft | 299 kts | 319° |
| 2026-04-12 09:39 | 38.95881 | 16.43110 | 10736 ft | 310 kts | 305° |
| 2026-04-12 09:40 | 38.97154 | 16.40737 | 10997 ft | 332 kts | 302° |
| 2026-04-12 09:40 | 38.98432 | 16.38191 | 11560 ft | 343 kts | 301° |
| 2026-04-12 09:40 | 38.99714 | 16.35594 | 12376 ft | 344 kts | 301° |
| 2026-04-12 09:40 | 39.01293 | 16.33269 | 13062 ft | 352 kts | 324° |
| 2026-04-12 09:41 | 39.03526 | 16.31989 | 13978 ft | 353 kts | 346° |
| 2026-04-12 09:41 | 39.05912 | 16.31546 | 15159 ft | 338 kts | 351° |
| 2026-04-12 09:41 | 39.08174 | 16.31229 | 16671 ft | 315 kts | 351° |
| 2026-04-12 09:41 | 39.10289 | 16.30949 | 18046 ft | 300 kts | 350° |
| 2026-04-12 09:42 | 39.12389 | 16.30663 | 18664 ft | 310 kts | 349° |
| 2026-04-12 09:42 | 39.14609 | 16.30346 | 18849 ft | 331 kts | 350° |
| 2026-04-12 09:42 | 39.16975 | 16.30005 | 19000 ft | 353 kts | 350° |
| 2026-04-12 09:43 | 39.24761 | 16.28865 | 20070 ft | 388 kts | 350° |
| 2026-04-12 09:43 | 39.27459 | 16.28471 | 20733 ft | 390 kts | 350° |
| 2026-04-12 09:43 | 39.30170 | 16.28072 | 21277 ft | 395 kts | 350° |
| 2026-04-12 09:44 | 39.32925 | 16.27663 | 21815 ft | 399 kts | 350° |
| 2026-04-12 09:44 | 39.35666 | 16.27256 | 22396 ft | 403 kts | 349° |
| 2026-04-12 09:44 | 39.38459 | 16.26841 | 22974 ft | 406 kts | 349° |
| 2026-04-12 09:44 | 39.41277 | 16.26422 | 23532 ft | 409 kts | 349° |
| 2026-04-12 09:45 | 39.44123 | 16.25997 | 24008 ft | 412 kts | 349° |
| 2026-04-12 09:45 | 39.46979 | 16.25571 | 24476 ft | 414 kts | 349° |
| 2026-04-12 09:45 | 39.49860 | 16.25141 | 24956 ft | 416 kts | 349° |
| 2026-04-12 09:45 | 39.52746 | 16.24709 | 25420 ft | 418 kts | 349° |
| 2026-04-12 09:46 | 39.55613 | 16.24280 | 25856 ft | 421 kts | 349° |
| 2026-04-12 09:46 | 39.58535 | 16.23842 | 26275 ft | 423 kts | 349° |
| 2026-04-12 09:46 | 39.61469 | 16.23403 | 26707 ft | 425 kts | 349° |
| 2026-04-12 09:46 | 39.64426 | 16.22960 | 27115 ft | 428 kts | 349° |
| 2026-04-12 09:47 | 39.67397 | 16.22514 | 27518 ft | 430 kts | 349° |
| 2026-04-12 09:47 | 39.70373 | 16.22067 | 27913 ft | 432 kts | 349° |
| 2026-04-12 09:47 | 39.73371 | 16.21616 | 28302 ft | 435 kts | 349° |
| 2026-04-12 09:47 | 39.76386 | 16.21162 | 28651 ft | 437 kts | 349° |
| 2026-04-12 09:48 | 39.79425 | 16.20704 | 29034 ft | 439 kts | 349° |
| 2026-04-12 09:48 | 39.82432 | 16.20250 | 29382 ft | 441 kts | 349° |
| 2026-04-12 09:48 | 39.85503 | 16.19786 | 29741 ft | 444 kts | 349° |
| 2026-04-12 09:48 | 39.88592 | 16.19319 | 30083 ft | 446 kts | 349° |
| 2026-04-12 09:49 | 39.91651 | 16.18856 | 30379 ft | 448 kts | 349° |
| 2026-04-12 09:49 | 39.94757 | 16.18386 | 30710 ft | 448 kts | 349° |
| 2026-04-12 09:49 | 39.97856 | 16.17917 | 31135 ft | 446 kts | 349° |
| 2026-04-12 09:49 | 40.00935 | 16.17451 | 31592 ft | 444 kts | 349° |
| 2026-04-12 09:50 | 40.04001 | 16.16987 | 31990 ft | 443 kts | 349° |
| 2026-04-12 09:50 | 40.07067 | 16.16520 | 32327 ft | 443 kts | 349° |
| 2026-04-12 09:50 | 40.10126 | 16.16054 | 32685 ft | 442 kts | 349° |
| 2026-04-12 09:50 | 40.13149 | 16.15595 | 33072 ft | 441 kts | 349° |
| 2026-04-12 09:51 | 40.16196 | 16.15130 | 33451 ft | 440 kts | 349° |
| 2026-04-12 09:51 | 40.19239 | 16.14666 | 33805 ft | 439 kts | 348° |
| 2026-04-12 09:51 | 40.22277 | 16.14201 | 34149 ft | 439 kts | 348° |
| 2026-04-12 09:51 | 40.25315 | 16.13737 | 34476 ft | 437 kts | 348° |
| 2026-04-12 09:52 | 40.28336 | 16.13275 | 34766 ft | 437 kts | 348° |
| 2026-04-12 09:52 | 40.31350 | 16.12813 | 35015 ft | 437 kts | 348° |
| 2026-04-12 09:52 | 40.34376 | 16.12348 | 35291 ft | 437 kts | 348° |
| 2026-04-12 09:52 | 40.37354 | 16.11891 | 35601 ft | 435 kts | 347° |
| 2026-04-12 09:53 | 40.40359 | 16.11430 | 35920 ft | 434 kts | 347° |
| 2026-04-12 09:53 | 40.43364 | 16.10968 | 36196 ft | 434 kts | 347° |
| 2026-04-12 09:53 | 40.46358 | 16.10507 | 36471 ft | 433 kts | 347° |
| 2026-04-12 09:53 | 40.49358 | 16.10046 | 36755 ft | 432 kts | 347° |
| 2026-04-12 09:54 | 40.52341 | 16.09586 | 37037 ft | 431 kts | 347° |
| 2026-04-12 09:54 | 40.55318 | 16.09127 | 37303 ft | 430 kts | 347° |
| 2026-04-12 09:54 | 40.58286 | 16.08668 | 37554 ft | 430 kts | 347° |
| 2026-04-12 09:54 | 40.61259 | 16.08209 | 37802 ft | 429 kts | 347° |
| 2026-04-12 09:55 | 40.64229 | 16.07750 | 38061 ft | 428 kts | 347° |
| 2026-04-12 09:55 | 40.70188 | 16.06823 | 38031 ft | 432 kts | 347° |
| 2026-04-12 09:56 | 40.76124 | 16.05904 | 38029 ft | 428 kts | 347° |
| 2026-04-12 09:56 | 40.82022 | 16.04991 | 38038 ft | 424 kts | 347° |
| 2026-04-12 09:57 | 40.87868 | 16.04080 | 38030 ft | 422 kts | 347° |
| 2026-04-12 09:57 | 40.93701 | 16.03169 | 38029 ft | 420 kts | 347° |
| 2026-04-12 09:58 | 40.99470 | 16.02266 | 38043 ft | 420 kts | 347° |
| 2026-04-12 09:58 | 41.05300 | 16.01351 | 38029 ft | 422 kts | 347° |
| 2026-04-12 09:59 | 41.11109 | 16.00438 | 38037 ft | 423 kts | 347° |
| 2026-04-12 09:59 | 41.16980 | 15.99515 | 38045 ft | 425 kts | 347° |
| 2026-04-12 10:00 | 41.22878 | 15.98587 | 38030 ft | 427 kts | 347° |
| 2026-04-12 10:00 | 41.27804 | 15.97811 | 38045 ft | 428 kts | 347° |
| 2026-04-12 10:01 | 41.33741 | 15.96873 | 38041 ft | 429 kts | 347° |
| 2026-04-12 10:01 | 41.39691 | 15.95932 | 38041 ft | 430 kts | 347° |
| 2026-04-12 10:02 | 41.43277 | 15.95365 | 38020 ft | 427 kts | 347° |
| 2026-04-12 10:02 | 41.46189 | 15.94910 | 38078 ft | 414 kts | 346° |
| 2026-04-12 10:02 | 41.49006 | 15.94472 | 38051 ft | 401 kts | 346° |
| 2026-04-12 10:03 | 41.54398 | 15.93624 | 38069 ft | 380 kts | 346° |
| 2026-04-12 10:03 | 41.56947 | 15.93225 | 38112 ft | 356 kts | 345° |
| 2026-04-12 10:03 | 41.59347 | 15.92851 | 38029 ft | 337 kts | 345° |
| 2026-04-12 10:03 | 41.61621 | 15.92494 | 38008 ft | 320 kts | 345° |
| 2026-04-12 10:04 | 41.63778 | 15.92153 | 38020 ft | 303 kts | 344° |
| 2026-04-12 10:04 | 41.65821 | 15.91828 | 38015 ft | 288 kts | 344° |
| 2026-04-12 10:04 | 41.67746 | 15.91521 | 38033 ft | 273 kts | 343° |
| 2026-04-12 10:04 | 41.69555 | 15.91237 | 38037 ft | 253 kts | 343° |
| 2026-04-12 10:05 | 41.71250 | 15.90969 | 38022 ft | 236 kts | 342° |
| 2026-04-12 10:05 | 41.72830 | 15.90719 | 37996 ft | 220 kts | 341° |
| 2026-04-12 10:05 | 41.74295 | 15.90486 | 37955 ft | 205 kts | 340° |
| 2026-04-12 10:05 | 41.75684 | 15.90260 | 37703 ft | 200 kts | 340° |
| 2026-04-12 10:06 | 41.77078 | 15.90024 | 37236 ft | 205 kts | 341° |
| 2026-04-12 10:06 | 41.78514 | 15.89779 | 36774 ft | 209 kts | 341° |
| 2026-04-12 10:06 | 41.79953 | 15.89542 | 36490 ft | 206 kts | 341° |
| 2026-04-12 10:06 | 41.81352 | 15.89317 | 36281 ft | 199 kts | 341° |
| 2026-04-12 10:07 | 41.82700 | 15.89100 | 36010 ft | 196 kts | 341° |
| 2026-04-12 10:07 | 41.84055 | 15.88879 | 35695 ft | 196 kts | 341° |
| 2026-04-12 10:07 | 41.85418 | 15.88655 | 35386 ft | 197 kts | 341° |
| 2026-04-12 10:07 | 41.86777 | 15.88435 | 35124 ft | 195 kts | 341° |
| 2026-04-12 10:08 | 41.88115 | 15.88219 | 34891 ft | 192 kts | 341° |
| 2026-04-12 10:08 | 41.89424 | 15.88008 | 34667 ft | 190 kts | 341° |
| 2026-04-12 10:08 | 41.90737 | 15.87796 | 34418 ft | 189 kts | 341° |
| 2026-04-12 10:08 | 41.92028 | 15.87586 | 34179 ft | 188 kts | 341° |
| 2026-04-12 10:09 | 41.93326 | 15.87376 | 33927 ft | 187 kts | 342° |
| 2026-04-12 10:09 | 41.94610 | 15.87169 | 33666 ft | 185 kts | 342° |
| 2026-04-12 10:09 | 41.95886 | 15.86963 | 33415 ft | 183 kts | 342° |
| 2026-04-12 10:09 | 41.97149 | 15.86759 | 33166 ft | 182 kts | 342° |
| 2026-04-12 10:10 | 41.98385 | 15.86560 | 32921 ft | 180 kts | 342° |
| 2026-04-12 10:10 | 41.99630 | 15.86358 | 32683 ft | 179 kts | 342° |
| 2026-04-12 10:10 | 42.00863 | 15.86159 | 32444 ft | 178 kts | 343° |
| 2026-04-12 10:10 | 42.02088 | 15.85961 | 32215 ft | 177 kts | 343° |
| 2026-04-12 10:11 | 42.03306 | 15.85764 | 31983 ft | 175 kts | 343° |
| 2026-04-12 10:11 | 42.04515 | 15.85568 | 31766 ft | 174 kts | 343° |
| 2026-04-12 10:11 | 42.05699 | 15.85376 | 31552 ft | 173 kts | 343° |
| 2026-04-12 10:11 | 42.06888 | 15.85184 | 31340 ft | 172 kts | 343° |
| 2026-04-12 10:12 | 42.08074 | 15.84992 | 31142 ft | 171 kts | 344° |
| 2026-04-12 10:12 | 42.09253 | 15.84800 | 30924 ft | 170 kts | 344° |
| 2026-04-12 10:12 | 42.10425 | 15.84611 | 30725 ft | 169 kts | 344° |
| 2026-04-12 10:12 | 42.11587 | 15.84422 | 30528 ft | 168 kts | 344° |
| 2026-04-12 10:13 | 42.12743 | 15.84235 | 30325 ft | 167 kts | 345° |
| 2026-04-12 10:13 | 42.13899 | 15.84046 | 30138 ft | 170 kts | 345° |
| 2026-04-12 10:13 | 42.15181 | 15.83825 | 29408 ft | 206 kts | 346° |
| 2026-04-12 10:13 | 42.16739 | 15.83553 | 28613 ft | 249 kts | 347° |
| 2026-04-12 10:14 | 42.18552 | 15.83251 | 28228 ft | 274 kts | 348° |
| 2026-04-12 10:14 | 42.20513 | 15.82933 | 28155 ft | 291 kts | 349° |
| 2026-04-12 10:14 | 42.22570 | 15.82604 | 28385 ft | 301 kts | 349° |
| 2026-04-12 10:14 | 42.24675 | 15.82269 | 28680 ft | 308 kts | 349° |
| 2026-04-12 10:15 | 42.26820 | 15.81926 | 28976 ft | 312 kts | 349° |
| 2026-04-12 10:15 | 42.28990 | 15.81578 | 29252 ft | 316 kts | 349° |
| 2026-04-12 10:15 | 42.31162 | 15.81227 | 29543 ft | 320 kts | 349° |
| 2026-04-12 10:15 | 42.33397 | 15.80865 | 29832 ft | 324 kts | 349° |
| 2026-04-12 10:16 | 42.35655 | 15.80498 | 30116 ft | 328 kts | 349° |
| 2026-04-12 10:16 | 42.37931 | 15.80127 | 30359 ft | 331 kts | 348° |
| 2026-04-12 10:16 | 42.40237 | 15.79751 | 30608 ft | 335 kts | 348° |
| 2026-04-12 10:16 | 42.42569 | 15.79370 | 30865 ft | 338 kts | 348° |
| 2026-04-12 10:17 | 42.44896 | 15.78990 | 31110 ft | 341 kts | 348° |
| 2026-04-12 10:17 | 42.47272 | 15.78601 | 31365 ft | 344 kts | 348° |
| 2026-04-12 10:17 | 42.49666 | 15.78208 | 31622 ft | 347 kts | 348° |
| 2026-04-12 10:17 | 42.52052 | 15.77817 | 31878 ft | 350 kts | 348° |
| 2026-04-12 10:18 | 42.54482 | 15.77419 | 32139 ft | 352 kts | 348° |
| 2026-04-12 10:18 | 42.56929 | 15.77017 | 32403 ft | 354 kts | 348° |
| 2026-04-12 10:18 | 42.59387 | 15.76613 | 32667 ft | 356 kts | 348° |
| 2026-04-12 10:18 | 42.61853 | 15.76208 | 32942 ft | 358 kts | 348° |
| 2026-04-12 10:19 | 42.64337 | 15.75799 | 33199 ft | 360 kts | 348° |
| 2026-04-12 10:19 | 42.66829 | 15.75388 | 33473 ft | 361 kts | 348° |
| 2026-04-12 10:19 | 42.69357 | 15.75191 | 33747 ft | 368 kts | 356° |
| 2026-04-12 10:19 | 42.71897 | 15.75540 | 34020 ft | 374 kts | 5° |
| 2026-04-12 10:20 | 42.74441 | 15.76454 | 34254 ft | 380 kts | 11° |
| 2026-04-12 10:20 | 42.76975 | 15.77568 | 34508 ft | 381 kts | 12° |
| 2026-04-12 10:20 | 42.79501 | 15.78723 | 34756 ft | 382 kts | 13° |
| 2026-04-12 10:20 | 42.81991 | 15.79871 | 34998 ft | 383 kts | 13° |
| 2026-04-12 10:21 | 42.84518 | 15.81030 | 35242 ft | 383 kts | 13° |
| 2026-04-12 10:21 | 42.87056 | 15.82187 | 35496 ft | 383 kts | 13° |
| 2026-04-12 10:21 | 42.89594 | 15.83337 | 35747 ft | 383 kts | 13° |
| 2026-04-12 10:21 | 42.92134 | 15.84482 | 35994 ft | 383 kts | 13° |
| 2026-04-12 10:22 | 42.94635 | 15.85607 | 36250 ft | 382 kts | 13° |
| 2026-04-12 10:22 | 42.97164 | 15.86743 | 36507 ft | 382 kts | 13° |
| 2026-04-12 10:22 | 42.99696 | 15.87881 | 36770 ft | 381 kts | 13° |
| 2026-04-12 10:22 | 43.02214 | 15.89012 | 37035 ft | 380 kts | 13° |
| 2026-04-12 10:23 | 43.04726 | 15.90141 | 37295 ft | 379 kts | 13° |
| 2026-04-12 10:23 | 43.07194 | 15.91252 | 37560 ft | 377 kts | 13° |
| 2026-04-12 10:23 | 43.09690 | 15.92376 | 37804 ft | 377 kts | 13° |
| 2026-04-12 10:23 | 43.12195 | 15.93503 | 37929 ft | 379 kts | 13° |
| 2026-04-12 10:24 | 43.14725 | 15.94642 | 37989 ft | 383 kts | 13° |
| 2026-04-12 10:24 | 43.19822 | 15.96938 | 38054 ft | 392 kts | 13° |
| 2026-04-12 10:25 | 43.25075 | 15.99311 | 38060 ft | 402 kts | 13° |
| 2026-04-12 10:25 | 43.30453 | 16.01748 | 38068 ft | 411 kts | 13° |
| 2026-04-12 10:26 | 43.35910 | 16.04226 | 38072 ft | 420 kts | 13° |
| 2026-04-12 10:26 | 43.41521 | 16.06780 | 38073 ft | 427 kts | 13° |
| 2026-04-12 10:27 | 43.47183 | 16.09365 | 38070 ft | 429 kts | 14° |
| 2026-04-12 10:27 | 43.52868 | 16.11964 | 38070 ft | 429 kts | 14° |
| 2026-04-12 10:28 | 43.58437 | 16.14519 | 38061 ft | 419 kts | 14° |
| 2026-04-12 10:28 | 43.63982 | 16.17062 | 38081 ft | 419 kts | 14° |
| 2026-04-12 10:29 | 43.69490 | 16.19590 | 38070 ft | 419 kts | 13° |
| 2026-04-12 10:29 | 43.75040 | 16.22143 | 38066 ft | 420 kts | 14° |
| 2026-04-12 10:30 | 43.80594 | 16.24704 | 38059 ft | 420 kts | 14° |
| 2026-04-12 10:30 | 43.86120 | 16.27258 | 38058 ft | 420 kts | 14° |
| 2026-04-12 10:31 | 43.91675 | 16.29830 | 38047 ft | 421 kts | 14° |
| 2026-04-12 10:31 | 43.97239 | 16.32412 | 38050 ft | 421 kts | 14° |
| 2026-04-12 10:32 | 44.02774 | 16.34985 | 38046 ft | 420 kts | 14° |
| 2026-04-12 10:32 | 44.08328 | 16.37572 | 38048 ft | 420 kts | 14° |
| 2026-04-12 10:33 | 44.13841 | 16.40146 | 38034 ft | 419 kts | 14° |
| 2026-04-12 10:33 | 44.19382 | 16.42738 | 38050 ft | 418 kts | 14° |
| 2026-04-12 10:34 | 44.24895 | 16.45321 | 38032 ft | 417 kts | 14° |
| 2026-04-12 10:34 | 44.30353 | 16.47883 | 38040 ft | 415 kts | 13° |
| 2026-04-12 10:35 | 44.35833 | 16.50461 | 38029 ft | 414 kts | 13° |
| 2026-04-12 10:35 | 44.41250 | 16.53015 | 38034 ft | 412 kts | 13° |
| 2026-04-12 10:36 | 44.46687 | 16.55582 | 38043 ft | 411 kts | 13° |
| 2026-04-12 10:36 | 44.52115 | 16.58151 | 38049 ft | 410 kts | 13° |
| 2026-04-12 10:37 | 44.57494 | 16.60701 | 38045 ft | 409 kts | 13° |
| 2026-04-12 10:37 | 44.62888 | 16.63263 | 38058 ft | 409 kts | 14° |
| 2026-04-12 10:38 | 44.68280 | 16.65829 | 38054 ft | 408 kts | 13° |
| 2026-04-12 10:38 | 44.73665 | 16.68398 | 38061 ft | 408 kts | 13° |
| 2026-04-12 10:39 | 44.79011 | 16.70952 | 38061 ft | 408 kts | 13° |
| 2026-04-12 10:39 | 44.84393 | 16.73530 | 38060 ft | 407 kts | 13° |
| 2026-04-12 10:40 | 44.89753 | 16.76101 | 38065 ft | 406 kts | 13° |
| 2026-04-12 10:40 | 44.95079 | 16.78661 | 38072 ft | 406 kts | 13° |
| 2026-04-12 10:41 | 45.00441 | 16.81244 | 38074 ft | 405 kts | 13° |
| 2026-04-12 10:41 | 45.05784 | 16.83822 | 38083 ft | 405 kts | 13° |
| 2026-04-12 10:42 | 45.10209 | 16.85962 | 38079 ft | 403 kts | 13° |
| 2026-04-12 10:42 | 45.16395 | 16.88958 | 38077 ft | 403 kts | 13° |
| 2026-04-12 10:43 | 45.23461 | 16.92390 | 38080 ft | 401 kts | 13° |
| 2026-04-12 10:43 | 45.28741 | 16.94960 | 38075 ft | 400 kts | 13° |
| 2026-04-12 10:44 | 45.33977 | 16.97514 | 38085 ft | 399 kts | 13° |
| 2026-04-12 10:44 | 45.39242 | 17.00086 | 38085 ft | 399 kts | 13° |
| 2026-04-12 10:45 | 45.44487 | 17.02654 | 38086 ft | 398 kts | 13° |
| 2026-04-12 10:45 | 45.49737 | 17.05230 | 38084 ft | 397 kts | 13° |
| 2026-04-12 10:46 | 45.54931 | 17.07783 | 38084 ft | 396 kts | 13° |
| 2026-04-12 10:46 | 45.60127 | 17.10342 | 38086 ft | 395 kts | 13° |
| 2026-04-12 10:47 | 45.65349 | 17.12919 | 38091 ft | 394 kts | 13° |
| 2026-04-12 10:47 | 45.70514 | 17.15473 | 38093 ft | 394 kts | 13° |
| 2026-04-12 10:48 | 45.75705 | 17.18045 | 38091 ft | 393 kts | 13° |
| 2026-04-12 10:48 | 45.80849 | 17.20598 | 38088 ft | 392 kts | 13° |
| 2026-04-12 10:49 | 45.86007 | 17.23164 | 38104 ft | 391 kts | 13° |
| 2026-04-12 10:49 | 45.91123 | 17.25714 | 38095 ft | 390 kts | 12° |
| 2026-04-12 10:50 | 45.96258 | 17.28277 | 38103 ft | 390 kts | 12° |
| 2026-04-12 10:50 | 46.01382 | 17.30902 | 38100 ft | 391 kts | 14° |
| 2026-04-12 10:51 | 46.06431 | 17.33779 | 38106 ft | 391 kts | 15° |
| 2026-04-12 10:51 | 46.11456 | 17.36697 | 38107 ft | 391 kts | 14° |
| 2026-04-12 10:52 | 46.16512 | 17.39615 | 38110 ft | 390 kts | 14° |
| 2026-04-12 10:52 | 46.21570 | 17.42521 | 38110 ft | 390 kts | 14° |
| 2026-04-12 10:53 | 46.26617 | 17.45418 | 38115 ft | 390 kts | 14° |
| 2026-04-12 10:53 | 46.31636 | 17.48305 | 38111 ft | 390 kts | 14° |
| 2026-04-12 10:54 | 46.36685 | 17.51213 | 38116 ft | 390 kts | 14° |
| 2026-04-12 10:54 | 46.41739 | 17.54131 | 38123 ft | 390 kts | 14° |
| 2026-04-12 10:55 | 46.46747 | 17.57028 | 38114 ft | 389 kts | 14° |
| 2026-04-12 10:55 | 46.51793 | 17.59952 | 38116 ft | 389 kts | 14° |
| 2026-04-12 10:56 | 46.56805 | 17.62864 | 38126 ft | 389 kts | 14° |
| 2026-04-12 10:56 | 46.61836 | 17.65791 | 38122 ft | 389 kts | 14° |
| 2026-04-12 10:57 | 46.66871 | 17.68727 | 38131 ft | 389 kts | 14° |
| 2026-04-12 10:57 | 46.71880 | 17.71654 | 38122 ft | 388 kts | 13° |
| 2026-04-12 10:58 | 46.76898 | 17.74592 | 38126 ft | 388 kts | 13° |
| 2026-04-12 10:58 | 46.81881 | 17.77515 | 38129 ft | 388 kts | 13° |
| 2026-04-12 10:59 | 46.86894 | 17.80461 | 38131 ft | 388 kts | 13° |
| 2026-04-12 10:59 | 46.91889 | 17.83403 | 38131 ft | 388 kts | 13° |
| 2026-04-12 11:00 | 46.96904 | 17.86363 | 38138 ft | 387 kts | 13° |
| 2026-04-12 11:00 | 47.01876 | 17.89304 | 38143 ft | 387 kts | 13° |
| 2026-04-12 11:01 | 47.06884 | 17.92271 | 38149 ft | 387 kts | 13° |
| 2026-04-12 11:01 | 47.11887 | 17.95241 | 38148 ft | 388 kts | 13° |
| 2026-04-12 11:02 | 47.16872 | 17.98207 | 38145 ft | 388 kts | 13° |
| 2026-04-12 11:02 | 47.21895 | 18.01202 | 38151 ft | 388 kts | 13° |
| 2026-04-12 11:03 | 47.26880 | 18.04178 | 38152 ft | 388 kts | 12° |
| 2026-04-12 11:03 | 47.31885 | 18.07176 | 38148 ft | 387 kts | 12° |
| 2026-04-12 11:04 | 47.36869 | 18.10168 | 38157 ft | 386 kts | 12° |
| 2026-04-12 11:04 | 47.41842 | 18.13158 | 38156 ft | 385 kts | 12° |
| 2026-04-12 11:05 | 47.46781 | 18.16132 | 38153 ft | 385 kts | 12° |
| 2026-04-12 11:05 | 47.51751 | 18.19130 | 38158 ft | 386 kts | 12° |
| 2026-04-12 11:06 | 47.56744 | 18.22148 | 38155 ft | 387 kts | 12° |
| 2026-04-12 11:06 | 47.61709 | 18.25156 | 38159 ft | 389 kts | 12° |
| 2026-04-12 11:07 | 47.66742 | 18.28212 | 38148 ft | 390 kts | 12° |
| 2026-04-12 11:07 | 47.71755 | 18.31263 | 38157 ft | 392 kts | 12° |
| 2026-04-12 11:08 | 47.76827 | 18.34355 | 38145 ft | 394 kts | 12° |
| 2026-04-12 11:08 | 47.81918 | 18.37467 | 38153 ft | 395 kts | 12° |
| 2026-04-12 11:09 | 47.87019 | 18.40592 | 38148 ft | 397 kts | 13° |
| 2026-04-12 11:09 | 47.92111 | 18.43717 | 38141 ft | 398 kts | 13° |
| 2026-04-12 11:10 | 47.97181 | 18.47211 | 38157 ft | 404 kts | 17° |
| 2026-04-12 11:10 | 48.02193 | 18.51128 | 38151 ft | 406 kts | 18° |
| 2026-04-12 11:11 | 48.07169 | 18.55036 | 38153 ft | 406 kts | 18° |
| 2026-04-12 11:11 | 48.12195 | 18.58939 | 38156 ft | 405 kts | 17° |
| 2026-04-12 11:12 | 48.17190 | 18.62794 | 38126 ft | 410 kts | 18° |
| 2026-04-12 11:12 | 48.19753 | 18.64764 | 37829 ft | 417 kts | 18° |
| 2026-04-12 11:12 | 48.22330 | 18.66754 | 37563 ft | 415 kts | 18° |
| 2026-04-12 11:13 | 48.24883 | 18.68736 | 37294 ft | 410 kts | 18° |
| 2026-04-12 11:13 | 48.27398 | 18.70693 | 37022 ft | 405 kts | 17° |
| 2026-04-12 11:13 | 48.29901 | 18.72639 | 36765 ft | 404 kts | 17° |
| 2026-04-12 11:13 | 48.32389 | 18.74571 | 36299 ft | 402 kts | 17° |
| 2026-04-12 11:14 | 48.34874 | 18.76501 | 35756 ft | 401 kts | 17° |
| 2026-04-12 11:14 | 48.37358 | 18.78432 | 35146 ft | 401 kts | 17° |
| 2026-04-12 11:14 | 48.39805 | 18.80335 | 34518 ft | 401 kts | 17° |
| 2026-04-12 11:14 | 48.42289 | 18.82273 | 33857 ft | 401 kts | 17° |
| 2026-04-12 11:15 | 48.44765 | 18.84204 | 33131 ft | 401 kts | 17° |
| 2026-04-12 11:15 | 48.47246 | 18.86141 | 32438 ft | 400 kts | 17° |
| 2026-04-12 11:15 | 48.49719 | 18.88075 | 31762 ft | 399 kts | 18° |
| 2026-04-12 11:15 | 48.52192 | 18.90009 | 31064 ft | 399 kts | 18° |
| 2026-04-12 11:16 | 48.54638 | 18.91924 | 30333 ft | 400 kts | 18° |
| 2026-04-12 11:16 | 48.57119 | 18.93870 | 29492 ft | 400 kts | 18° |
| 2026-04-12 11:16 | 48.59587 | 18.95812 | 28863 ft | 396 kts | 18° |
| 2026-04-12 11:16 | 48.62016 | 18.97731 | 28301 ft | 390 kts | 18° |
| 2026-04-12 11:17 | 48.64379 | 18.99598 | 27748 ft | 385 kts | 18° |
| 2026-04-12 11:17 | 48.66743 | 19.01466 | 27201 ft | 381 kts | 18° |
| 2026-04-12 11:17 | 48.69086 | 19.03317 | 26637 ft | 377 kts | 18° |
| 2026-04-12 11:17 | 48.71407 | 19.05149 | 26105 ft | 374 kts | 18° |
| 2026-04-12 11:18 | 48.73700 | 19.06960 | 25564 ft | 371 kts | 18° |
| 2026-04-12 11:18 | 48.75990 | 19.08770 | 25033 ft | 370 kts | 18° |
| 2026-04-12 11:18 | 48.78270 | 19.10574 | 24519 ft | 368 kts | 18° |
| 2026-04-12 11:18 | 48.80542 | 19.12374 | 23919 ft | 370 kts | 18° |
| 2026-04-12 11:19 | 48.82848 | 19.14195 | 23806 ft | 381 kts | 18° |
| 2026-04-12 11:19 | 48.85236 | 19.16076 | 22865 ft | 391 kts | 19° |
| 2026-04-12 11:19 | 48.87607 | 19.17962 | 22220 ft | 387 kts | 19° |
| 2026-04-12 11:19 | 48.89983 | 19.19863 | 21700 ft | 382 kts | 19° |
| 2026-04-12 11:20 | 48.92304 | 19.21727 | 21440 ft | 371 kts | 19° |
| 2026-04-12 11:20 | 48.94561 | 19.23540 | 21175 ft | 362 kts | 19° |
| 2026-04-12 11:20 | 48.96796 | 19.25326 | 20919 ft | 366 kts | 20° |
| 2026-04-12 11:20 | 48.99077 | 19.27141 | 20671 ft | 372 kts | 20° |
| 2026-04-12 11:21 | 49.01377 | 19.28977 | 20396 ft | 369 kts | 20° |
| 2026-04-12 11:21 | 49.03610 | 19.30771 | 19947 ft | 365 kts | 20° |
| 2026-04-12 11:21 | 49.05850 | 19.32572 | 19379 ft | 363 kts | 20° |
| 2026-04-12 11:21 | 49.08090 | 19.34371 | 18763 ft | 363 kts | 21° |
| 2026-04-12 11:22 | 49.10321 | 19.36165 | 18166 ft | 361 kts | 21° |
| 2026-04-12 11:22 | 49.12531 | 19.37946 | 17574 ft | 356 kts | 21° |
| 2026-04-12 11:22 | 49.14730 | 19.39718 | 16920 ft | 356 kts | 21° |
| 2026-04-12 11:22 | 49.16888 | 19.41454 | 16289 ft | 353 kts | 22° |
| 2026-04-12 11:23 | 49.19064 | 19.43209 | 15618 ft | 354 kts | 22° |
| 2026-04-12 11:23 | 49.21237 | 19.44965 | 15077 ft | 352 kts | 23° |
| 2026-04-12 11:23 | 49.23414 | 19.46659 | 14568 ft | 347 kts | 18° |
| 2026-04-12 11:23 | 49.25693 | 19.47667 | 14333 ft | 335 kts | 7° |
| 2026-04-12 11:24 | 49.27991 | 19.48059 | 14085 ft | 330 kts | 358° |
| 2026-04-12 11:24 | 49.30289 | 19.48070 | 13857 ft | 338 kts | 357° |
| 2026-04-12 11:24 | 49.32665 | 19.48046 | 13584 ft | 342 kts | 357° |
| 2026-04-12 11:24 | 49.35049 | 19.48020 | 13304 ft | 341 kts | 357° |
| 2026-04-12 11:25 | 49.37419 | 19.47997 | 12861 ft | 338 kts | 358° |
| 2026-04-12 11:25 | 49.39764 | 19.47979 | 12396 ft | 335 kts | 358° |
| 2026-04-12 11:25 | 49.42063 | 19.47967 | 11920 ft | 332 kts | 358° |
| 2026-04-12 11:25 | 49.44372 | 19.47956 | 11418 ft | 331 kts | 358° |
| 2026-04-12 11:26 | 49.45896 | 19.47950 | 11107 ft | 330 kts | 359° |
| 2026-04-12 11:26 | 49.48191 | 19.47943 | 10647 ft | 328 kts | 359° |
| 2026-04-12 11:26 | 49.50438 | 19.47937 | 10517 ft | 316 kts | 359° |
| 2026-04-12 11:26 | 49.52597 | 19.47932 | 10365 ft | 302 kts | 359° |
| 2026-04-12 11:27 | 49.54646 | 19.47928 | 10228 ft | 286 kts | 359° |
| 2026-04-12 11:27 | 49.56603 | 19.47923 | 10118 ft | 277 kts | 359° |
| 2026-04-12 11:27 | 49.58526 | 19.47933 | 10039 ft | 277 kts | 0° |
| 2026-04-12 11:27 | 49.60441 | 19.47953 | 9805 ft | 283 kts | 359° |
| 2026-04-12 11:28 | 49.62436 | 19.47938 | 9498 ft | 288 kts | 358° |
| 2026-04-12 11:28 | 49.64443 | 19.47926 | 9152 ft | 287 kts | 359° |
| 2026-04-12 11:28 | 49.66432 | 19.47920 | 8857 ft | 285 kts | 359° |
| 2026-04-12 11:28 | 49.68414 | 19.47908 | 8478 ft | 284 kts | 359° |
| 2026-04-12 11:29 | 49.70389 | 19.47898 | 8205 ft | 280 kts | 359° |
| 2026-04-12 11:29 | 49.72343 | 19.47888 | 7909 ft | 280 kts | 359° |
| 2026-04-12 11:29 | 49.74286 | 19.47878 | 7598 ft | 279 kts | 359° |
| 2026-04-12 11:29 | 49.76204 | 19.47873 | 7308 ft | 279 kts | 359° |
| 2026-04-12 11:30 | 49.78153 | 19.47870 | 6980 ft | 279 kts | 359° |
| 2026-04-12 11:30 | 49.80092 | 19.47864 | 6693 ft | 278 kts | 359° |
| 2026-04-12 11:30 | 49.82027 | 19.47859 | 6391 ft | 277 kts | 359° |
| 2026-04-12 11:30 | 49.83934 | 19.47853 | 6071 ft | 276 kts | 359° |
| 2026-04-12 11:31 | 49.85861 | 19.47849 | 5696 ft | 278 kts | 359° |
| 2026-04-12 11:31 | 49.87795 | 19.47844 | 5399 ft | 276 kts | 359° |
| 2026-04-12 11:31 | 49.89671 | 19.47839 | 5279 ft | 264 kts | 359° |
| 2026-04-12 11:31 | 49.91477 | 19.47836 | 5157 ft | 255 kts | 359° |
| 2026-04-12 11:32 | 49.93230 | 19.47832 | 5054 ft | 249 kts | 359° |
| 2026-04-12 11:32 | 49.94939 | 19.47825 | 4955 ft | 242 kts | 359° |
| 2026-04-12 11:32 | 49.96628 | 19.47823 | 4859 ft | 242 kts | 359° |
| 2026-04-12 11:32 | 49.98280 | 19.47819 | 4757 ft | 241 kts | 359° |
| 2026-04-12 11:33 | 49.99957 | 19.47814 | 4548 ft | 241 kts | 359° |
| 2026-04-12 11:33 | 50.01623 | 19.47897 | 4314 ft | 238 kts | 12° |
| 2026-04-12 11:33 | 50.03079 | 19.49036 | 4084 ft | 235 kts | 45° |
| 2026-04-12 11:33 | 50.03938 | 19.51156 | 3856 ft | 232 kts | 71° |
| 2026-04-12 11:34 | 50.04340 | 19.53526 | 3656 ft | 226 kts | 78° |
| 2026-04-12 11:34 | 50.04658 | 19.55888 | 3391 ft | 219 kts | 79° |
| 2026-04-12 11:34 | 50.04968 | 19.58174 | 3156 ft | 213 kts | 79° |
| 2026-04-12 11:34 | 50.05266 | 19.60402 | 2875 ft | 210 kts | 80° |
| 2026-04-12 11:35 | 50.05561 | 19.62582 | 2596 ft | 199 kts | 79° |
| 2026-04-12 11:35 | 50.05843 | 19.64614 | 2342 ft | 191 kts | 79° |
| 2026-04-12 11:35 | 50.06101 | 19.66569 | 2106 ft | 178 kts | 78° |
| 2026-04-12 11:35 | 50.06365 | 19.68424 | 1881 ft | 166 kts | 78° |
| 2026-04-12 11:36 | 50.06598 | 19.70076 | 1637 ft | 152 kts | 77° |
| 2026-04-12 11:36 | 50.06816 | 19.71643 | 1432 ft | 146 kts | 77° |
| 2026-04-12 11:36 | 50.07029 | 19.73168 | 1273 ft | 144 kts | 77° |
| 2026-04-12 11:36 | 50.07249 | 19.74722 | 1121 ft | 147 kts | 76° |
| 2026-04-12 11:37 | 50.07459 | 19.76240 | 935 ft | 141 kts | 77° |
| 2026-04-12 11:37 | 50.07665 | 19.77702 | 798 ft | 130 kts | 77° |
| 2026-04-12 11:37 | 50.07825 | 19.78853 | 801 ft | 87 kts | 77° |
| 2026-04-12 11:37 | 50.07923 | 19.79548 | 800 ft | 47 kts | 78° |
| 2026-04-12 11:38 | 50.07982 | 19.79973 | 800 ft | 29 kts | 78° |
| 2026-04-12 11:38 | 50.08010 | 19.80182 | 799 ft | 13 kts | 83° |
| 2026-04-12 11:38 | 50.07971 | 19.80293 | 799 ft | 12 kts | 158° |
| 2026-04-12 11:38 | 50.07886 | 19.80322 | 799 ft | 13 kts | 167° |
| 2026-04-12 11:39 | 50.07781 | 19.80358 | 799 ft | 17 kts | 167° |
| 2026-04-12 11:39 | 50.07689 | 19.80388 | 799 ft | 7 kts | 168° |
| 2026-04-12 11:39 | 50.07641 | 19.80405 | 799 ft | 8 kts | 167° |
| 2026-04-12 11:39 | 50.07574 | 19.80401 | 799 ft | 10 kts | 225° |
| 2026-04-12 11:40 | 50.07553 | 19.80291 | 799 ft | 12 kts | 257° |
| 2026-04-12 11:40 | 50.07532 | 19.80143 | 799 ft | 16 kts | 258° |
| 2026-04-12 11:40 | 50.07509 | 19.80070 | 799 ft | 5 kts | 184° |
| 2026-04-12 11:40 | 50.07481 | 19.80077 | 799 ft | 3 kts | 168° |
| 2026-04-12 11:41 | 50.07472 | 19.80080 | 799 ft | 1 kts | 168° |
| 2026-04-12 11:41 | 50.07471 | 19.80080 | 799 ft | 0 kts | 168° |